createdAt,value
2022-09-18T00:01:19.865Z,2.15
2022-09-18T00:03:49.306Z,2.55
2022-09-18T00:06:19.182Z,2.38
2022-09-18T00:08:46.183Z,1.95
2022-09-18T00:11:14.567Z,1.63
2022-09-18T00:13:41.969Z,2.35
2022-09-18T00:16:10.804Z,2.22
2022-09-18T00:18:37.663Z,2.72
2022-09-18T00:21:09.437Z,2.35
2022-09-18T00:23:36.881Z,1.95
2022-09-18T00:26:04.626Z,2.20
2022-09-18T00:28:31.542Z,2.38
2022-09-18T00:31:19.884Z,2.33
2022-09-18T00:33:46.676Z,2.45
2022-09-18T00:36:15.523Z,1.92
2022-09-18T00:38:42.307Z,2.20
2022-09-18T00:41:14.112Z,2.03
2022-09-18T00:43:40.470Z,1.98
2022-09-18T00:46:25.351Z,2.33
2022-09-18T00:49:17.133Z,2.33
2022-09-18T00:51:45.559Z,2.33
2022-09-18T00:54:36.041Z,2.47
2022-09-18T00:57:06.187Z,2.40
2022-09-18T00:59:34.106Z,2.08
2022-09-18T01:02:01.449Z,1.75
2022-09-18T01:04:28.585Z,2.45
2022-09-18T01:07:33.702Z,2.35
2022-09-18T01:10:18.606Z,2.13
2022-09-18T01:12:56.543Z,2.20
2022-09-18T01:15:46.170Z,2.00
2022-09-18T01:18:29.738Z,2.10
2022-09-18T01:21:13.425Z,2.17
2022-09-18T01:24:14.362Z,2.10
2022-09-18T01:26:49.250Z,2.20
2022-09-18T01:29:25.686Z,1.80
2022-09-18T01:31:54.589Z,2.13
2022-09-18T01:34:25.924Z,2.05
2022-09-18T01:36:57.060Z,1.90
2022-09-18T01:39:31.530Z,1.92
2022-09-18T01:41:58.055Z,1.75
2022-09-18T01:44:28.682Z,2.08
2022-09-18T01:46:56.805Z,1.52
2022-09-18T01:49:26.869Z,1.33
2022-09-18T01:51:57.303Z,1.70
2022-09-18T01:54:25.555Z,1.70
2022-09-18T01:56:55.681Z,1.92
2022-09-18T01:59:25.976Z,2.22
2022-09-18T02:01:54.036Z,1.63
2022-09-18T02:04:25.367Z,1.70
2022-09-18T02:06:58.999Z,1.98
2022-09-18T02:09:25.397Z,1.95
2022-09-18T02:11:52.995Z,1.85
2022-09-18T02:14:35.642Z,1.63
2022-09-18T02:17:06.952Z,1.60
2022-09-18T02:19:50.202Z,1.60
2022-09-18T02:22:19.711Z,1.80
2022-09-18T02:24:47.298Z,1.85
2022-09-18T02:27:14.006Z,1.92
2022-09-18T02:29:42.910Z,1.83
2022-09-18T02:32:09.395Z,1.50
2022-09-18T02:34:35.732Z,1.73
2022-09-18T02:37:14.122Z,2.10
2022-09-18T02:40:11.288Z,1.77
2022-09-18T02:42:42.259Z,1.70
2022-09-18T02:45:14.737Z,1.85
2022-09-18T02:48:12.802Z,1.42
2022-09-18T02:51:02.150Z,1.60
2022-09-18T02:53:57.754Z,1.60
2022-09-18T02:56:39.490Z,1.63
2022-09-18T02:59:16.929Z,1.60
2022-09-18T03:01:44.366Z,1.60
2022-09-18T03:04:14.276Z,1.45
2022-09-18T03:06:41.037Z,1.40
2022-09-18T03:09:07.417Z,1.60
2022-09-18T03:11:33.745Z,1.35
2022-09-18T03:14:00.072Z,1.63
2022-09-18T03:16:26.426Z,1.98
2022-09-18T03:18:52.807Z,1.77
2022-09-18T03:21:19.130Z,1.58
2022-09-18T03:23:45.844Z,1.33
2022-09-18T03:26:12.334Z,1.65
2022-09-18T03:28:38.706Z,1.67
2022-09-18T03:31:05.059Z,1.50
2022-09-18T03:33:31.433Z,1.52
2022-09-18T03:35:57.771Z,1.60
2022-09-18T03:38:24.586Z,1.40
2022-09-18T03:40:50.890Z,1.60
2022-09-18T03:43:17.207Z,1.45
2022-09-18T03:45:43.566Z,1.40
2022-09-18T03:48:09.904Z,1.23
2022-09-18T03:50:36.269Z,1.50
2022-09-18T03:53:02.570Z,1.40
2022-09-18T03:55:28.891Z,1.15
2022-09-18T03:57:57.200Z,1.10
2022-09-18T04:00:23.497Z,0.98
2022-09-18T04:02:49.851Z,1.42
2022-09-18T04:05:16.279Z,1.02
2022-09-18T04:07:42.595Z,1.30
2022-09-18T04:10:09.055Z,1.73
2022-09-18T04:12:35.603Z,1.13
2022-09-18T04:15:01.911Z,1.20
2022-09-18T04:17:28.505Z,1.55
2022-09-18T04:19:54.821Z,1.25
2022-09-18T04:22:22.177Z,1.02
2022-09-18T04:24:50.188Z,1.10
2022-09-18T04:27:16.698Z,1.42
2022-09-18T04:29:43.021Z,1.33
2022-09-18T04:32:09.525Z,1.27
2022-09-18T04:34:35.885Z,1.17
2022-09-18T04:37:03.399Z,1.25
2022-09-18T04:39:32.734Z,1.15
2022-09-18T04:41:59.487Z,1.35
2022-09-18T04:44:25.814Z,1.30
2022-09-18T04:46:52.171Z,1.17
2022-09-18T04:49:18.794Z,1.20
2022-09-18T04:51:45.434Z,1.08
2022-09-18T04:54:12.512Z,1.23
2022-09-18T04:56:39.241Z,1.10
2022-09-18T04:59:05.553Z,1.10
2022-09-18T05:01:31.947Z,1.10
2022-09-18T05:03:58.343Z,0.90
2022-09-18T05:06:24.685Z,1.20
2022-09-18T05:08:51.146Z,1.00
2022-09-18T05:11:17.454Z,1.35
2022-09-18T05:13:43.805Z,0.90
2022-09-18T05:16:10.156Z,1.25
2022-09-18T05:18:36.539Z,0.90
2022-09-18T05:21:03.910Z,1.10
2022-09-18T05:23:30.239Z,0.90
2022-09-18T05:25:56.596Z,1.20
2022-09-18T05:28:22.974Z,0.82
2022-09-18T05:30:50.024Z,0.85
2022-09-18T05:33:16.377Z,0.82
2022-09-18T05:35:42.871Z,1.20
2022-09-18T05:38:10.320Z,1.02
2022-09-18T05:40:37.680Z,1.17
2022-09-18T05:43:04.811Z,1.05
2022-09-18T05:45:31.246Z,1.17
2022-09-18T05:48:02.854Z,1.30
2022-09-18T05:50:30.929Z,1.20
2022-09-18T05:52:58.677Z,0.85
2022-09-18T05:55:25.024Z,1.20
2022-09-18T05:57:53.039Z,1.00
2022-09-18T06:00:19.789Z,1.48
2022-09-18T06:03:06.946Z,1.10
2022-09-18T06:05:34.825Z,1.10
2022-09-18T06:08:02.169Z,0.82
2022-09-18T06:10:29.826Z,1.27
2022-09-18T06:13:22.988Z,1.00
2022-09-18T06:15:52.166Z,1.05
2022-09-18T06:18:18.589Z,1.30
2022-09-18T06:20:52.319Z,0.95
2022-09-18T06:23:18.674Z,1.27
2022-09-18T06:25:44.978Z,1.45
2022-09-18T06:28:11.318Z,1.00
2022-09-18T06:30:37.816Z,0.90
2022-09-18T06:33:09.073Z,1.00
2022-09-18T06:35:36.292Z,0.90
2022-09-18T06:38:03.933Z,1.10
2022-09-18T06:40:31.212Z,1.00
2022-09-18T06:42:58.409Z,1.00
2022-09-18T06:45:25.720Z,0.80
2022-09-18T06:47:54.238Z,1.30
2022-09-18T06:50:24.417Z,0.80
2022-09-18T06:52:51.370Z,0.77
2022-09-18T06:55:18.660Z,1.20
2022-09-18T06:57:58.221Z,1.10
2022-09-18T07:00:25.538Z,1.30
2022-09-18T07:02:55.969Z,1.13
2022-09-18T07:05:22.360Z,0.82
2022-09-18T07:07:48.681Z,0.90
2022-09-18T07:10:15.033Z,1.00
2022-09-18T07:12:41.662Z,0.90
2022-09-18T07:15:08.171Z,0.82
2022-09-18T07:17:34.555Z,0.85
2022-09-18T07:20:01.089Z,0.90
2022-09-18T07:22:28.342Z,0.93
2022-09-18T07:24:54.757Z,0.60
2022-09-18T07:27:21.098Z,0.70
2022-09-18T07:29:47.522Z,0.93
2022-09-18T07:32:13.901Z,0.55
2022-09-18T07:34:40.307Z,0.73
2022-09-18T07:37:06.619Z,0.70
2022-09-18T07:39:32.955Z,0.80
2022-09-18T07:41:59.282Z,0.90
2022-09-18T07:44:27.453Z,1.02
2022-09-18T07:46:55.252Z,0.90
2022-09-18T07:49:21.699Z,0.77
2022-09-18T07:51:48.216Z,0.63
2022-09-18T07:54:14.550Z,0.80
2022-09-18T07:56:46.065Z,0.90
2022-09-18T07:59:13.176Z,0.80
2022-09-18T08:01:39.590Z,0.68
2022-09-18T08:04:06.413Z,0.73
2022-09-18T08:06:33.094Z,0.90
2022-09-18T08:08:59.665Z,0.75
2022-09-18T08:11:26.008Z,0.90
2022-09-18T08:13:52.330Z,0.90
2022-09-18T08:16:18.924Z,0.60
2022-09-18T08:18:45.390Z,0.80
2022-09-18T08:21:11.778Z,0.75
2022-09-18T08:23:39.453Z,0.70
2022-09-18T08:26:05.765Z,0.60
2022-09-18T08:28:32.301Z,0.50
2022-09-18T08:30:58.646Z,0.70
2022-09-18T08:33:25.320Z,0.80
2022-09-18T08:35:51.691Z,0.65
2022-09-18T08:38:18.005Z,0.88
2022-09-18T08:41:15.066Z,0.60
2022-09-18T08:43:54.080Z,0.70
2022-09-18T08:46:31.907Z,0.70
2022-09-18T08:49:20.510Z,0.75
2022-09-18T08:52:05.001Z,0.70
2022-09-18T08:54:53.553Z,0.60
2022-09-18T08:57:30.801Z,0.80
2022-09-18T09:00:01.692Z,0.73
2022-09-18T09:02:37.710Z,0.82
2022-09-18T09:05:27.459Z,0.68
2022-09-18T09:08:04.320Z,0.80
2022-09-18T09:10:43.419Z,0.75
2022-09-18T09:13:47.628Z,0.90
2022-09-18T09:16:23.885Z,0.70
2022-09-18T09:19:01.287Z,0.60
2022-09-18T09:21:47.772Z,0.80
2022-09-18T09:24:28.782Z,0.80
2022-09-18T09:26:56.103Z,0.90
2022-09-18T09:29:32.018Z,0.95
2022-09-18T09:32:14.706Z,1.05
2022-09-18T09:34:45.309Z,1.00
2022-09-18T09:37:15.538Z,0.90
2022-09-18T09:39:46.257Z,1.02
2022-09-18T09:42:25.687Z,1.15
2022-09-18T09:45:01.870Z,0.85
2022-09-18T09:47:33.625Z,1.02
2022-09-18T09:50:05.707Z,1.27
2022-09-18T09:52:32.366Z,1.17
2022-09-18T09:55:19.223Z,1.23
2022-09-18T09:57:59.791Z,1.00
2022-09-18T10:00:26.612Z,1.40
2022-09-18T10:02:56.311Z,1.05
2022-09-18T10:05:38.814Z,0.77
2022-09-18T10:08:12.875Z,1.23
2022-09-18T10:10:47.812Z,1.17
2022-09-18T10:13:19.499Z,0.95
2022-09-18T10:15:48.223Z,1.23
2022-09-18T10:18:30.468Z,1.10
2022-09-18T10:21:03.840Z,1.10
2022-09-18T10:23:41.573Z,1.40
2022-09-18T10:26:13.023Z,1.25
2022-09-18T10:28:39.364Z,1.27
2022-09-18T10:31:10.394Z,1.00
2022-09-18T10:33:45.081Z,1.27
2022-09-18T10:36:23.531Z,1.30
2022-09-18T10:38:50.697Z,1.02
2022-09-18T10:41:35.777Z,1.30
2022-09-18T10:44:14.003Z,1.20
2022-09-18T10:47:00.778Z,1.13
2022-09-18T10:49:36.318Z,1.13
2022-09-18T10:52:21.201Z,1.13
2022-09-18T10:55:19.217Z,1.05
2022-09-18T10:57:53.917Z,0.90
2022-09-18T11:00:20.112Z,1.35
2022-09-18T11:02:49.806Z,0.93
2022-09-18T11:05:26.260Z,0.93
2022-09-18T11:07:56.261Z,1.20
2022-09-18T11:10:27.275Z,1.00
2022-09-18T11:12:56.543Z,1.10
2022-09-18T11:15:28.498Z,1.00
2022-09-18T11:17:56.790Z,1.20
2022-09-18T11:20:28.519Z,1.00
2022-09-18T11:23:21.846Z,1.13
2022-09-18T11:25:48.389Z,0.98
2022-09-18T11:28:22.226Z,0.80
2022-09-18T11:30:56.927Z,0.88
2022-09-18T11:33:31.787Z,0.90
2022-09-18T11:36:04.191Z,1.00
2022-09-18T11:38:31.360Z,1.10
2022-09-18T11:40:59.105Z,0.90
2022-09-18T11:43:35.536Z,1.00
2022-09-18T11:46:22.917Z,0.73
2022-09-18T11:48:54.126Z,1.00
2022-09-18T11:51:26.689Z,0.70
2022-09-18T11:54:02.449Z,0.68
2022-09-18T11:56:36.148Z,0.73
2022-09-18T11:59:15.298Z,1.00
2022-09-18T12:01:48.963Z,0.80
2022-09-18T12:04:38.251Z,0.93
2022-09-18T12:07:40.223Z,1.00
2022-09-18T12:10:11.318Z,1.00
2022-09-18T12:12:41.567Z,0.88
2022-09-18T12:15:13.723Z,1.05
2022-09-18T12:17:55.828Z,1.10
2022-09-18T12:20:29.498Z,1.30
2022-09-18T12:22:57.811Z,0.90
2022-09-18T12:25:47.181Z,1.20
2022-09-18T12:28:20.309Z,1.20
2022-09-18T12:31:19.940Z,1.17
2022-09-18T12:33:57.672Z,1.70
2022-09-18T12:36:34.915Z,1.27
2022-09-18T12:39:39.378Z,1.35
2022-09-18T12:42:11.694Z,1.33
2022-09-18T12:45:24.131Z,1.33
2022-09-18T12:48:03.881Z,1.20
2022-09-18T12:50:40.740Z,1.45
2022-09-18T12:53:26.108Z,1.52
2022-09-18T12:56:16.977Z,1.20
2022-09-18T12:58:59.309Z,1.10
2022-09-18T13:01:31.903Z,1.20
2022-09-18T13:04:20.574Z,1.08
2022-09-18T13:06:51.950Z,1.35
2022-09-18T13:09:26.046Z,1.20
2022-09-18T13:14:43.309Z,1.27
2022-09-18T13:17:18.370Z,1.25
2022-09-18T13:19:57.734Z,1.20
2022-09-18T13:22:25.627Z,1.70
2022-09-18T13:24:53.068Z,1.55
2022-09-18T13:27:20.878Z,1.50
2022-09-18T13:29:47.644Z,1.40
2022-09-18T13:32:17.423Z,1.25
2022-09-18T13:34:50.465Z,1.10
2022-09-18T13:37:17.759Z,1.58
2022-09-18T13:40:09.628Z,1.77
2022-09-18T13:42:38.838Z,1.30
2022-09-18T13:45:13.741Z,1.85
2022-09-18T13:48:06.365Z,1.30
2022-09-18T13:50:34.343Z,0.98
2022-09-18T13:53:03.800Z,1.35
2022-09-18T13:55:36.301Z,1.85
2022-09-18T13:58:33.585Z,1.65
2022-09-18T14:01:04.825Z,1.27
2022-09-18T14:03:34.720Z,1.40
2022-09-18T14:06:36.367Z,1.33
2022-09-18T14:09:48.808Z,1.45
2022-09-18T14:12:16.045Z,1.48
2022-09-18T14:14:43.792Z,1.70
2022-09-18T14:17:15.094Z,1.60
2022-09-18T14:19:44.029Z,1.20
2022-09-18T14:22:25.477Z,1.70
2022-09-18T14:24:51.706Z,1.40
2022-09-18T14:27:35.142Z,1.30
2022-09-18T14:30:22.276Z,1.30
2022-09-18T14:33:05.369Z,1.48
2022-09-18T14:35:46.964Z,1.25
2022-09-18T14:38:17.993Z,1.50
2022-09-18T14:40:49.243Z,1.48
2022-09-18T14:43:16.380Z,1.88
2022-09-18T14:45:42.944Z,1.50
2022-09-18T14:48:27.975Z,1.30
2022-09-18T14:50:59.712Z,1.58
2022-09-18T14:53:27.768Z,1.70
2022-09-18T14:56:07.717Z,1.67
2022-09-18T14:58:36.744Z,1.88
2022-09-18T15:01:05.820Z,1.80
2022-09-18T15:03:37.290Z,1.95
2022-09-18T15:06:10.326Z,1.30
2022-09-18T15:08:37.422Z,1.50
2022-09-18T15:11:04.087Z,1.60
2022-09-18T15:13:33.568Z,1.20
2022-09-18T15:16:04.070Z,1.30
2022-09-18T15:18:38.972Z,1.40
2022-09-18T15:21:05.460Z,1.52
2022-09-18T15:23:38.896Z,1.40
2022-09-18T15:26:08.641Z,1.60
2022-09-18T15:28:36.317Z,1.48
2022-09-18T15:31:04.728Z,1.45
2022-09-18T15:33:32.312Z,1.77
2022-09-18T15:35:58.833Z,1.23
2022-09-18T15:38:40.770Z,1.70
2022-09-18T15:41:28.873Z,1.58
2022-09-18T15:43:55.285Z,1.60
2022-09-18T15:46:29.839Z,1.55
2022-09-18T15:49:00.202Z,1.40
2022-09-18T15:51:31.543Z,1.50
2022-09-18T15:54:01.577Z,1.58
2022-09-18T15:56:28.091Z,1.58
2022-09-18T15:58:57.835Z,1.52
2022-09-18T16:01:41.611Z,1.70
2022-09-18T16:04:28.986Z,1.70
2022-09-18T16:07:03.197Z,1.80
2022-09-18T16:12:25.917Z,1.50
2022-09-18T16:15:00.113Z,1.50
2022-09-18T16:19:57.291Z,1.67
2022-09-18T16:22:24.390Z,1.77
2022-09-18T16:24:50.733Z,2.13
2022-09-18T16:27:18.007Z,1.85
2022-09-18T16:29:44.451Z,1.70
2022-09-18T16:32:11.898Z,1.80
2022-09-18T16:34:38.532Z,1.60
2022-09-18T16:37:08.169Z,1.73
2022-09-18T16:39:35.224Z,1.60
2022-09-18T16:42:13.848Z,1.88
2022-09-18T16:44:40.186Z,1.75
2022-09-18T16:47:09.439Z,2.17
2022-09-18T16:49:37.959Z,1.50
2022-09-18T16:52:04.996Z,1.50
2022-09-18T16:54:31.364Z,1.80
2022-09-18T16:57:04.870Z,1.50
2022-09-18T16:59:32.229Z,2.20
2022-09-18T17:02:04.287Z,1.67
2022-09-18T17:04:32.146Z,1.77
2022-09-18T17:06:58.587Z,1.60
2022-09-18T17:09:25.193Z,1.60
2022-09-18T17:11:52.523Z,1.55
2022-09-18T17:14:18.938Z,1.80
2022-09-18T17:16:45.356Z,2.30
2022-09-18T17:19:12.170Z,1.90
2022-09-18T17:21:38.966Z,2.78
2022-09-18T17:24:05.690Z,1.73
2022-09-18T17:26:32.469Z,2.20
2022-09-18T17:28:59.120Z,1.60
2022-09-18T17:31:26.387Z,2.20
2022-09-18T17:33:53.402Z,1.50
2022-09-18T17:36:20.093Z,1.95
2022-09-18T17:38:47.118Z,1.70
2022-09-18T17:41:15.949Z,1.50
2022-09-18T17:43:42.545Z,1.42
2022-09-18T17:46:11.102Z,1.60
2022-09-18T17:48:37.559Z,1.73
2022-09-18T17:51:16.533Z,1.45
2022-09-18T17:53:44.130Z,1.20
2022-09-18T17:56:11.828Z,1.50
2022-09-18T17:58:41.052Z,1.38
2022-09-18T18:01:13.829Z,1.80
2022-09-18T18:03:40.966Z,1.58
2022-09-18T18:06:07.838Z,1.50
2022-09-18T18:08:34.546Z,1.40
2022-09-18T18:11:09.563Z,1.52
2022-09-18T18:13:37.073Z,1.58
2022-09-18T18:16:09.294Z,1.50
2022-09-18T18:18:37.072Z,1.50
2022-09-18T18:21:04.840Z,1.70
2022-09-18T18:23:32.021Z,1.40
2022-09-18T18:26:02.690Z,1.50
2022-09-18T18:28:31.643Z,1.23
2022-09-18T18:31:05.198Z,1.10
2022-09-18T18:33:36.059Z,1.30
2022-09-18T18:36:11.721Z,1.33
2022-09-18T18:38:38.086Z,1.20
2022-09-18T18:41:04.924Z,0.95
2022-09-18T18:43:32.759Z,1.58
2022-09-18T18:45:59.117Z,1.25
2022-09-18T18:48:25.472Z,1.30
2022-09-18T18:50:52.281Z,0.88
2022-09-18T18:53:18.602Z,0.77
2022-09-18T18:55:48.401Z,0.95
2022-09-18T18:58:15.500Z,0.90
2022-09-18T19:00:42.040Z,0.70
2022-09-18T19:03:08.470Z,0.75
2022-09-18T19:05:34.980Z,0.60
2022-09-18T19:08:02.040Z,0.60
2022-09-18T19:10:29.414Z,0.50
2022-09-18T19:12:57.376Z,0.73
2022-09-18T19:15:27.737Z,1.10
2022-09-18T19:17:56.254Z,1.00
2022-09-18T19:20:22.953Z,0.80
2022-09-18T19:22:56.672Z,0.80
2022-09-18T19:25:27.051Z,0.75
2022-09-18T19:27:55.474Z,0.68
2022-09-18T19:30:22.257Z,1.00
2022-09-18T19:32:48.594Z,1.00
2022-09-18T19:35:14.930Z,0.80
2022-09-18T19:37:42.566Z,0.98
2022-09-18T19:40:16.233Z,0.90
2022-09-18T19:42:46.822Z,1.00
2022-09-18T19:45:15.790Z,0.93
2022-09-18T19:47:46.345Z,1.65
2022-09-18T19:50:28.166Z,1.45
2022-09-18T19:52:55.112Z,1.30
2022-09-18T19:55:21.781Z,1.60
2022-09-18T19:57:48.936Z,1.08
2022-09-18T20:00:15.661Z,0.73
2022-09-18T20:02:42.041Z,0.88
2022-09-18T20:05:09.634Z,2.65
2022-09-18T20:07:39.836Z,0.85
2022-09-18T20:10:08.885Z,1.27
2022-09-18T20:12:35.884Z,0.70
2022-09-18T20:15:03.541Z,0.70
2022-09-18T20:17:31.570Z,0.80
2022-09-18T20:19:59.281Z,0.80
2022-09-18T20:22:26.753Z,1.13
2022-09-18T20:24:53.866Z,0.63
2022-09-18T20:27:21.071Z,0.70
2022-09-18T20:29:47.474Z,0.95
2022-09-18T20:32:13.850Z,0.90
2022-09-18T20:34:41.536Z,0.80
2022-09-18T20:37:11.112Z,0.70
2022-09-18T20:39:37.450Z,0.77
2022-09-18T20:42:04.321Z,0.85
2022-09-18T20:44:32.091Z,0.93
2022-09-18T20:46:58.536Z,0.73
2022-09-18T20:49:25.439Z,1.15
2022-09-18T20:51:51.865Z,0.80
2022-09-18T20:54:22.710Z,1.10
2022-09-18T20:56:49.130Z,1.00
2022-09-18T20:59:16.823Z,1.00
2022-09-18T21:01:44.315Z,0.90
2022-09-18T21:04:17.044Z,1.00
2022-09-18T21:06:48.574Z,1.00
2022-09-18T21:09:15.409Z,0.80
2022-09-18T21:11:43.655Z,1.10
2022-09-18T21:14:12.053Z,0.90
2022-09-18T21:16:45.759Z,0.75
2022-09-18T21:19:16.914Z,0.85
2022-09-18T21:21:43.239Z,0.85
2022-09-18T21:24:09.906Z,0.80
2022-09-18T21:26:41.738Z,0.98
2022-09-18T21:29:20.608Z,0.80
2022-09-18T21:31:49.429Z,0.75
2022-09-18T21:34:23.691Z,0.80
2022-09-18T21:36:51.912Z,0.70
2022-09-18T21:39:18.404Z,0.68
2022-09-18T21:41:46.445Z,0.90
2022-09-18T21:44:17.767Z,0.80
2022-09-18T21:46:45.969Z,1.02
2022-09-18T21:49:14.770Z,0.88
2022-09-18T21:51:41.233Z,1.00
2022-09-18T21:54:09.665Z,0.75
2022-09-18T21:56:35.970Z,0.90
2022-09-18T21:59:02.279Z,0.90
2022-09-18T22:01:33.312Z,0.73
2022-09-18T22:04:02.074Z,0.85
2022-09-18T22:06:30.989Z,1.05
2022-09-18T22:08:59.450Z,0.90
2022-09-18T22:11:28.209Z,0.70
2022-09-18T22:13:55.947Z,0.68
2022-09-18T22:16:29.492Z,0.93
2022-09-18T22:18:56.574Z,0.50
2022-09-18T22:21:29.808Z,0.90
2022-09-18T22:24:08.753Z,1.20
2022-09-18T22:26:40.434Z,0.70
2022-09-18T22:29:11.874Z,0.80
2022-09-18T22:31:39.415Z,0.80
2022-09-18T22:34:06.477Z,0.63
2022-09-18T22:36:33.359Z,1.00
2022-09-18T22:39:00.003Z,0.77
2022-09-18T22:41:26.450Z,0.60
2022-09-18T22:43:56.250Z,1.10
2022-09-18T22:46:24.262Z,1.00
2022-09-18T22:48:51.837Z,0.82
2022-09-18T22:51:20.488Z,0.80
2022-09-18T22:53:59.840Z,0.95
2022-09-18T22:56:27.806Z,0.98
2022-09-18T22:58:56.113Z,0.90
2022-09-18T23:01:39.209Z,0.75
2022-09-18T23:04:06.256Z,0.75
2022-09-18T23:06:33.541Z,0.77
2022-09-18T23:09:00.591Z,0.80
2022-09-18T23:11:29.828Z,1.00
2022-09-18T23:14:01.644Z,0.75
2022-09-18T23:16:29.482Z,0.95
2022-09-18T23:19:04.181Z,0.95
2022-09-18T23:21:32.296Z,0.82
2022-09-18T23:24:00.960Z,0.80
2022-09-18T23:26:29.312Z,1.10
2022-09-18T23:28:59.939Z,0.90
2022-09-18T23:31:30.897Z,1.00
2022-09-18T23:34:02.851Z,0.85
2022-09-18T23:36:32.378Z,0.88
2022-09-18T23:39:04.549Z,0.90
2022-09-18T23:41:34.217Z,0.70
2022-09-18T23:44:01.713Z,1.00
2022-09-18T23:46:31.068Z,0.75
2022-09-18T23:48:58.040Z,0.80
2022-09-18T23:51:29.963Z,0.90
2022-09-18T23:53:58.277Z,0.80
2022-09-18T23:56:24.865Z,1.20
2022-09-18T23:58:58.536Z,1.42
